createdAt,value
2019-03-30T00:00:45.574Z,8.89
2019-03-30T00:05:47.723Z,8.91
2019-03-30T00:10:49.825Z,8.89
2019-03-30T00:15:51.978Z,8.89
2019-03-30T00:20:54.139Z,8.96
2019-03-30T00:25:56.346Z,8.99
2019-03-30T00:30:58.731Z,8.97
2019-03-30T00:36:00.866Z,8.94
2019-03-30T00:41:03.013Z,8.90
2019-03-30T00:46:05.126Z,8.80
2019-03-30T00:51:07.290Z,8.73
2019-03-30T00:56:09.448Z,8.70
2019-03-30T01:01:11.657Z,8.62
2019-03-30T01:06:14.254Z,8.56
2019-03-30T01:11:16.371Z,8.51
2019-03-30T01:16:18.572Z,8.46
2019-03-30T01:21:20.761Z,8.44
2019-03-30T01:26:22.916Z,8.44
2019-03-30T01:31:25.349Z,8.37
2019-03-30T01:36:27.493Z,8.31
2019-03-30T01:41:30.028Z,8.27
2019-03-30T01:46:32.275Z,8.23
2019-03-30T01:51:34.828Z,8.21
2019-03-30T01:56:36.997Z,8.18
2019-03-30T02:01:39.627Z,8.13
2019-03-30T02:06:41.898Z,8.11
2019-03-30T02:11:44.421Z,8.05
2019-03-30T02:16:46.677Z,7.96
2019-03-30T02:21:49.680Z,7.97
2019-03-30T02:26:51.833Z,7.98
2019-03-30T02:31:54.046Z,7.99
2019-03-30T02:36:56.232Z,7.94
2019-03-30T02:41:58.827Z,7.90
2019-03-30T02:47:00.992Z,7.91
2019-03-30T02:52:04.487Z,7.98
2019-03-30T02:57:06.660Z,8.00
2019-03-30T03:02:08.790Z,7.97
2019-03-30T03:07:11.960Z,7.88
2019-03-30T03:12:14.060Z,7.77
2019-03-30T03:17:16.228Z,7.73
2019-03-30T03:22:18.725Z,7.67
2019-03-30T03:27:20.882Z,7.65
2019-03-30T03:32:23.324Z,7.62
2019-03-30T03:37:43.337Z,7.59
2019-03-30T03:42:29.628Z,7.54
2019-03-30T03:47:31.860Z,7.49
2019-03-30T03:52:34.131Z,7.41
2019-03-30T03:57:38.593Z,7.35
2019-03-30T04:02:41.880Z,7.28
2019-03-30T04:07:44.106Z,7.22
2019-03-30T04:12:46.248Z,7.17
2019-03-30T04:17:48.413Z,7.13
2019-03-30T04:22:50.888Z,7.16
2019-03-30T04:27:53.182Z,7.19
2019-03-30T04:32:55.347Z,7.18
2019-03-30T04:37:57.532Z,7.16
2019-03-30T04:42:59.635Z,7.12
2019-03-30T04:48:01.781Z,7.06
2019-03-30T04:53:04.298Z,6.99
2019-03-30T04:58:09.273Z,6.94
2019-03-30T05:03:10.553Z,6.89
2019-03-30T05:08:12.705Z,6.82
2019-03-30T05:13:14.792Z,6.79
2019-03-30T05:18:17.671Z,6.81
2019-03-30T05:23:20.151Z,6.80
2019-03-30T05:28:22.592Z,6.76
2019-03-30T05:33:24.859Z,6.70
2019-03-30T05:38:27.281Z,6.52
2019-03-30T05:43:29.469Z,6.37
2019-03-30T05:48:31.711Z,6.33
2019-03-30T05:53:34.456Z,6.41
2019-03-30T05:58:36.606Z,6.48
2019-03-30T06:03:38.797Z,6.54
2019-03-30T06:08:41.076Z,6.59
2019-03-30T06:13:43.226Z,6.63
2019-03-30T06:18:45.342Z,6.66
2019-03-30T06:23:48.783Z,6.74
2019-03-30T06:28:51.477Z,6.79
2019-03-30T06:33:53.697Z,6.86
2019-03-30T06:38:55.898Z,6.97
2019-03-30T06:43:58.057Z,7.06
2019-03-30T06:49:00.445Z,7.16
2019-03-30T06:54:02.666Z,7.29
2019-03-30T06:59:04.825Z,7.44
2019-03-30T07:04:07.069Z,7.60
2019-03-30T07:09:09.329Z,7.74
2019-03-30T07:14:11.644Z,7.87
2019-03-30T07:19:13.932Z,7.98
2019-03-30T07:24:16.201Z,8.13
2019-03-30T07:29:18.503Z,8.32
2019-03-30T07:34:20.776Z,8.41
2019-03-30T07:39:23.593Z,8.54
2019-03-30T07:44:25.775Z,8.67
2019-03-30T07:49:27.881Z,9.02
2019-03-30T07:54:30.405Z,9.46
2019-03-30T07:59:32.709Z,9.93
2019-03-30T08:04:34.968Z,10.34
2019-03-30T08:09:37.406Z,10.40
2019-03-30T08:14:39.569Z,10.39
2019-03-30T08:19:41.801Z,10.45
2019-03-30T08:24:44.096Z,10.63
2019-03-30T08:29:46.211Z,10.96
2019-03-30T08:34:49.172Z,11.34
2019-03-30T08:39:51.442Z,11.50
2019-03-30T08:44:53.630Z,11.78
2019-03-30T08:49:57.904Z,11.79
2019-03-30T08:55:00.346Z,11.79
2019-03-30T09:00:02.618Z,12.01
2019-03-30T09:05:05.558Z,12.43
2019-03-30T09:10:08.178Z,12.69
2019-03-30T09:15:10.335Z,12.85
2019-03-30T09:20:12.467Z,13.20
2019-03-30T09:25:14.547Z,13.40
2019-03-30T09:30:17.037Z,13.91
2019-03-30T09:35:20.279Z,14.14
2019-03-30T09:40:22.735Z,14.69
2019-03-30T09:45:25.209Z,15.10
2019-03-30T09:50:27.770Z,15.57
2019-03-30T09:55:30.368Z,15.58
2019-03-30T10:00:33.345Z,15.72
2019-03-30T10:05:40.641Z,16.07
2019-03-30T10:10:43.193Z,16.33
2019-03-30T10:15:45.988Z,16.74
2019-03-30T10:20:48.604Z,16.89
2019-03-30T10:25:53.355Z,17.00
2019-03-30T10:30:56.273Z,17.06
2019-03-30T10:35:59.795Z,17.45
2019-03-30T10:41:02.448Z,18.03
2019-03-30T10:46:07.191Z,18.08
2019-03-30T10:51:09.707Z,18.29
2019-03-30T10:56:12.178Z,18.69
2019-03-30T11:01:14.407Z,18.79
2019-03-30T11:06:16.958Z,19.06
2019-03-30T11:11:19.136Z,19.38
2019-03-30T11:16:21.336Z,19.09
2019-03-30T11:21:23.621Z,19.26
2019-03-30T11:26:25.760Z,19.59
2019-03-30T11:31:28.666Z,19.79
2019-03-30T11:36:30.984Z,19.83
2019-03-30T11:41:34.289Z,19.68
2019-03-30T11:46:36.464Z,19.87
2019-03-30T11:51:38.612Z,20.01
2019-03-30T11:56:40.737Z,19.97
2019-03-30T12:01:42.968Z,20.10
2019-03-30T12:06:45.512Z,20.20
2019-03-30T12:11:47.734Z,20.37
2019-03-30T12:16:49.911Z,20.39
2019-03-30T12:21:52.035Z,20.29
2019-03-30T12:26:55.494Z,20.40
2019-03-30T12:31:57.928Z,20.37
2019-03-30T12:37:00.063Z,20.55
2019-03-30T12:42:02.599Z,20.30
2019-03-30T12:47:04.736Z,20.54
2019-03-30T12:52:08.604Z,20.75
2019-03-30T12:57:11.221Z,20.83
2019-03-30T13:02:13.702Z,21.06
2019-03-30T13:07:16.221Z,21.14
2019-03-30T13:12:18.735Z,21.19
2019-03-30T13:17:21.335Z,21.24
2019-03-30T13:22:24.834Z,21.20
2019-03-30T13:27:27.280Z,21.44
2019-03-30T13:32:29.752Z,21.66
2019-03-30T13:37:32.763Z,21.75
2019-03-30T13:42:34.967Z,21.94
2019-03-30T13:47:37.738Z,21.95
2019-03-30T13:52:41.479Z,22.36
2019-03-30T13:57:44.151Z,22.66
2019-03-30T14:02:50.086Z,22.76
2019-03-30T14:07:53.236Z,23.14
2019-03-30T14:12:55.452Z,23.40
2019-03-30T14:17:58.212Z,23.46
2019-03-30T14:23:01.045Z,23.26
2019-03-30T14:28:04.035Z,23.41
2019-03-30T14:33:06.304Z,23.60
2019-03-30T14:38:08.821Z,23.80
2019-03-30T14:43:11.750Z,24.05
2019-03-30T14:48:14.538Z,24.07
2019-03-30T14:53:17.612Z,24.07
2019-03-30T14:58:20.291Z,24.21
2019-03-30T15:03:25.121Z,23.96
2019-03-30T15:08:27.540Z,23.93
2019-03-30T15:13:29.964Z,23.95
2019-03-30T15:18:32.595Z,23.74
2019-03-30T15:23:35.841Z,23.40
2019-03-30T15:28:38.356Z,23.11
2019-03-30T15:33:40.550Z,22.83
2019-03-30T15:38:42.622Z,22.59
2019-03-30T15:43:44.793Z,22.29
2019-03-30T15:48:48.108Z,22.25
2019-03-30T15:53:50.264Z,22.16
2019-03-30T15:58:52.870Z,21.79
2019-03-30T16:03:55.306Z,21.66
2019-03-30T16:08:57.741Z,21.77
2019-03-30T16:14:01.196Z,21.71
2019-03-30T16:19:03.673Z,21.70
2019-03-30T16:24:05.908Z,21.31
2019-03-30T16:29:08.552Z,20.95
2019-03-30T16:34:11.019Z,20.50
2019-03-30T16:39:13.118Z,19.97
2019-03-30T16:44:15.601Z,19.56
2019-03-30T16:49:18.340Z,19.37
2019-03-30T16:54:20.449Z,19.27
2019-03-30T16:59:23.447Z,18.90
2019-03-30T17:04:25.634Z,18.68
2019-03-30T17:09:27.832Z,18.33
2019-03-30T17:14:30.101Z,18.08
2019-03-30T17:19:32.197Z,17.82
2019-03-30T17:24:34.426Z,17.52
2019-03-30T17:29:36.706Z,17.28
2019-03-30T17:34:39.328Z,17.02
2019-03-30T17:39:41.707Z,16.72
2019-03-30T17:44:44.195Z,16.56
2019-03-30T17:49:47.000Z,16.45
2019-03-30T17:54:49.418Z,16.24
2019-03-30T17:59:52.357Z,16.01
2019-03-30T18:04:55.543Z,15.82
2019-03-30T18:09:57.969Z,15.65
2019-03-30T18:15:00.465Z,15.47
2019-03-30T18:20:02.652Z,15.30
2019-03-30T18:25:05.276Z,15.14
2019-03-30T18:30:09.667Z,15.08
2019-03-30T18:35:12.240Z,14.89
2019-03-30T18:40:26.531Z,14.79
2019-03-30T18:45:29.042Z,14.65
2019-03-30T18:50:31.156Z,14.52
2019-03-30T18:55:33.486Z,14.39
2019-03-30T19:00:35.605Z,14.27
2019-03-30T19:05:37.807Z,14.13
2019-03-30T19:10:40.058Z,14.02
2019-03-30T19:15:42.402Z,13.91
2019-03-30T19:20:44.939Z,13.85
2019-03-30T19:25:47.288Z,13.78
2019-03-30T19:30:49.546Z,13.68
2019-03-30T19:35:51.815Z,13.55
2019-03-30T19:40:54.044Z,13.57
2019-03-30T19:45:56.192Z,13.56
2019-03-30T19:50:58.308Z,13.43
2019-03-30T19:56:00.410Z,13.28
2019-03-30T20:01:02.799Z,13.16
2019-03-30T20:06:05.034Z,13.08
2019-03-30T20:11:10.363Z,13.04
2019-03-30T20:16:12.746Z,12.96
2019-03-30T20:21:14.879Z,12.89
2019-03-30T20:26:17.083Z,12.83
2019-03-30T20:31:19.593Z,12.82
2019-03-30T20:36:21.760Z,12.80
2019-03-30T20:41:24.362Z,12.73
2019-03-30T20:46:26.536Z,12.67
2019-03-30T20:51:28.669Z,12.61
2019-03-30T20:56:31.119Z,12.57
2019-03-30T21:01:33.229Z,12.47
2019-03-30T21:06:36.442Z,12.34
2019-03-30T21:11:39.228Z,12.23
2019-03-30T21:16:41.490Z,12.12
2019-03-30T21:21:44.666Z,12.02
2019-03-30T21:26:47.004Z,11.90
2019-03-30T21:31:49.483Z,11.77
2019-03-30T21:36:51.695Z,11.69
2019-03-30T21:41:53.882Z,11.49
2019-03-30T21:46:56.018Z,11.43
2019-03-30T21:51:59.586Z,11.38
2019-03-30T21:57:01.775Z,11.33
2019-03-30T22:02:03.940Z,11.16
2019-03-30T22:07:06.155Z,11.05
2019-03-30T22:12:08.340Z,10.99
2019-03-30T22:17:10.612Z,10.90
2019-03-30T22:22:12.816Z,10.83
2019-03-30T22:27:15.036Z,10.76
2019-03-30T22:32:17.338Z,10.74
2019-03-30T22:37:19.453Z,10.68
2019-03-30T22:42:21.609Z,10.59
2019-03-30T22:47:23.899Z,10.47
2019-03-30T22:52:26.297Z,10.30
2019-03-30T22:57:28.455Z,10.24
2019-03-30T23:02:30.985Z,10.20
2019-03-30T23:07:33.178Z,10.12
2019-03-30T23:12:35.477Z,10.03
2019-03-30T23:17:37.741Z,9.89
2019-03-30T23:22:39.912Z,9.73
2019-03-30T23:27:42.099Z,9.67
2019-03-30T23:32:44.341Z,9.65
2019-03-30T23:37:47.818Z,9.57
2019-03-30T23:42:50.399Z,9.51
2019-03-30T23:47:52.605Z,9.45
2019-03-30T23:52:54.876Z,9.36
2019-03-30T23:57:57.054Z,9.33
